Time;durP1;ratioP1;P1;durP2;ratioP2;P2;SDS_P1;SDS_P2;PMS_P1;PMS_P2;Temp;Humidity;BMP_temperature;BMP_pressure;BME280_temperature;BME280_humidity;BME280_pressure;Samples;Min_cycle;Max_cycle;Signal;HPM_P1;HPM_P2
2023/10/26 00:00:57;;;;;;;6.53;5.93;;;24.00;95.10;;;;;;6333049;27;89069;-70
2023/10/26 00:03:59;;;;;;;9.80;7.13;;;24.10;95.30;;;;;;6320055;27;90894;-70
2023/10/26 00:07:04;;;;;;;6.68;5.75;;;24.00;95.30;;;;;;6316966;27;89020;-71
2023/10/26 00:10:07;;;;;;;6.05;5.55;;;24.00;95.40;;;;;;6318316;27;89002;-70
2023/10/26 00:13:09;;;;;;;6.57;5.97;;;24.00;95.40;;;;;;6329733;27;89098;-70
2023/10/26 00:16:11;;;;;;;6.65;6.05;;;24.00;95.40;;;;;;6326370;27;88597;-69
2023/10/26 00:19:13;;;;;;;6.75;6.15;;;24.00;95.60;;;;;;6327327;27;89053;-70
2023/10/26 00:22:16;;;;;;;7.20;6.50;;;24.00;95.60;;;;;;6319889;27;89036;-70
2023/10/26 00:25:18;;;;;;;6.72;6.07;;;24.00;95.60;;;;;;6327879;27;89975;-70
2023/10/26 00:28:20;;;;;;;7.03;6.32;;;24.00;95.60;;;;;;6324663;27;88243;-70
2023/10/26 00:31:22;;;;;;;7.47;6.72;;;24.00;95.70;;;;;;6311439;27;89030;-70
2023/10/26 00:34:24;;;;;;;7.45;6.45;;;24.00;95.80;;;;;;6331190;27;88996;-70
2023/10/26 00:37:30;;;;;;;7.07;6.38;;;24.00;95.70;;;;;;6320853;27;89027;-69
2023/10/26 00:40:32;;;;;;;7.35;6.65;;;24.00;95.80;;;;;;6326930;27;89187;-70
2023/10/26 00:43:34;;;;;;;7.40;6.70;;;23.90;95.70;;;;;;6331279;27;89065;-70
2023/10/26 00:46:37;;;;;;;8.15;7.35;;;24.00;95.80;;;;;;6330099;27;88331;-70
2023/10/26 00:49:40;;;;;;;7.15;6.50;;;23.90;95.80;;;;;;6323804;27;89342;-70
2023/10/26 00:52:44;;;;;;;7.30;6.30;;;23.90;95.80;;;;;;6317779;27;89452;-70
2023/10/26 00:55:50;;;;;;;7.53;6.82;;;23.90;95.80;;;;;;6324328;27;88177;-70
2023/10/26 00:58:52;;;;;;;7.57;6.88;;;23.90;95.80;;;;;;6325277;27;90245;-70
2023/10/26 01:01:55;;;;;;;7.05;6.38;;;23.90;95.80;;;;;;6320995;27;88995;-69
2023/10/26 01:04:57;;;;;;;9.15;6.90;;;23.90;95.80;;;;;;6314975;27;89030;-70
2023/10/26 01:08:00;;;;;;;9.60;7.57;;;23.90;96.00;;;;;;6307680;27;89058;-69
2023/10/26 01:11:02;;;;;;;7.28;6.57;;;23.90;95.80;;;;;;6329987;27;88427;-70
2023/10/26 01:14:05;;;;;;;7.15;6.47;;;23.90;95.90;;;;;;6313051;27;89065;-70
2023/10/26 01:17:07;;;;;;;6.88;6.28;;;23.90;95.90;;;;;;6321612;27;88310;-70
2023/10/26 01:20:17;;;;;;;7.38;6.68;;;23.90;95.90;;;;;;6328230;27;89222;-70
2023/10/26 01:23:20;;;;;;;7.28;6.53;;;23.90;95.90;;;;;;6324469;27;87936;-70
2023/10/26 01:26:22;;;;;;;7.70;6.95;;;23.90;96.10;;;;;;6317009;27;90029;-70
2023/10/26 01:29:24;;;;;;;7.32;6.63;;;23.90;96.00;;;;;;6325635;27;89051;-70
2023/10/26 01:32:27;;;;;;;7.35;6.65;;;23.90;96.00;;;;;;6316866;27;89387;-70
2023/10/26 01:35:41;;;;;;;7.35;6.65;;;23.90;96.00;;;;;;6313822;27;89043;-70
2023/10/26 01:38:44;;;;;;;7.32;6.63;;;23.90;96.00;;;;;;6325746;27;88379;-70
2023/10/26 01:41:47;;;;;;;7.53;6.70;;;23.90;96.00;;;;;;6318336;27;88245;-67
2023/10/26 01:44:49;;;;;;;7.70;6.97;;;23.90;95.90;;;;;;6317785;27;89015;-68
2023/10/26 01:47:51;;;;;;;7.18;6.47;;;23.90;96.00;;;;;;6319835;27;87328;-68
2023/10/26 01:50:53;;;;;;;7.53;6.72;;;23.80;96.00;;;;;;6320832;27;88012;-68
2023/10/26 01:53:56;;;;;;;7.45;6.75;;;23.90;96.00;;;;;;6320590;27;89097;-68
2023/10/26 01:56:59;;;;;;;7.80;7.10;;;23.80;96.00;;;;;;6316729;27;90053;-68
2023/10/26 02:00:01;;;;;;;7.90;7.10;;;23.90;96.10;;;;;;6322056;27;89146;-68
2023/10/26 02:03:03;;;;;;;8.18;6.60;;;23.80;96.00;;;;;;6328430;27;88768;-68
2023/10/26 02:06:05;;;;;;;7.55;6.82;;;23.90;96.20;;;;;;6306147;27;89389;-68
2023/10/26 02:09:09;;;;;;;7.60;6.90;;;23.80;96.10;;;;;;6326055;27;89377;-68
2023/10/26 02:12:11;;;;;;;8.57;7.40;;;23.80;96.10;;;;;;6309852;27;89005;-70
2023/10/26 02:15:13;;;;;;;8.88;7.50;;;23.80;96.10;;;;;;6319812;27;87938;-70
2023/10/26 02:18:15;;;;;;;8.13;7.32;;;23.80;96.20;;;;;;6310634;27;88394;-70
2023/10/26 02:21:17;;;;;;;7.82;6.90;;;23.80;96.30;;;;;;6310442;27;88802;-70
2023/10/26 02:24:21;;;;;;;7.30;6.60;;;23.80;96.20;;;;;;6329253;27;87089;-69
2023/10/26 02:27:23;;;;;;;7.30;6.60;;;23.80;96.20;;;;;;6327862;27;89916;-70
2023/10/26 02:30:25;;;;;;;7.70;7.00;;;23.80;96.20;;;;;;6321377;27;87927;-70
2023/10/26 02:33:27;;;;;;;7.70;7.00;;;23.80;96.20;;;;;;6328239;27;89357;-71
2023/10/26 02:36:29;;;;;;;8.23;7.43;;;23.80;96.10;;;;;;6319845;27;88950;-70
2023/10/26 02:39:32;;;;;;;8.02;7.22;;;23.80;96.10;;;;;;6320412;27;89034;-71
2023/10/26 02:42:34;;;;;;;8.52;7.72;;;23.80;96.20;;;;;;6319690;27;89197;-70
2023/10/26 02:45:36;;;;;;;7.85;7.10;;;23.80;96.20;;;;;;6320760;27;88994;-70
2023/10/26 02:48:38;;;;;;;8.93;7.75;;;23.80;96.20;;;;;;6333518;27;88311;-71
2023/10/26 02:51:41;;;;;;;7.60;6.90;;;23.80;96.30;;;;;;6334221;27;89083;-70
2023/10/26 02:54:44;;;;;;;8.90;7.97;;;23.80;96.30;;;;;;6331012;27;89051;-70
2023/10/26 02:57:46;;;;;;;8.55;7.65;;;23.70;96.20;;;;;;6316893;27;90260;-71
2023/10/26 03:00:48;;;;;;;8.35;7.53;;;23.70;96.30;;;;;;6333394;27;89384;-70
2023/10/26 03:03:51;;;;;;;8.80;7.90;;;23.70;96.40;;;;;;6326020;27;87919;-70
2023/10/26 03:06:53;;;;;;;8.20;7.40;;;23.70;96.40;;;;;;6315668;27;89247;-70
2023/10/26 03:09:56;;;;;;;8.40;7.60;;;23.70;96.40;;;;;;6313862;27;89070;-71
2023/10/26 03:12:58;;;;;;;8.80;8.00;;;23.70;96.50;;;;;;6320112;27;89039;-70
2023/10/26 03:16:00;;;;;;;8.50;7.70;;;23.70;96.40;;;;;;6324924;27;88973;-70
2023/10/26 03:19:02;;;;;;;8.02;7.22;;;23.70;96.50;;;;;;6326391;27;88926;-70
2023/10/26 03:22:05;;;;;;;8.88;7.97;;;23.70;96.40;;;;;;6309830;27;88039;-70
2023/10/26 03:25:13;;;;;;;8.27;7.47;;;23.70;96.40;;;;;;6321893;27;89219;-69
2023/10/26 03:28:18;;;;;;;8.60;7.80;;;23.70;96.40;;;;;;6317810;27;90090;-70
2023/10/26 03:31:20;;;;;;;8.50;7.70;;;23.80;96.40;;;;;;6312985;27;88077;-70
2023/10/26 03:34:22;;;;;;;8.35;7.47;;;23.70;96.30;;;;;;6322374;27;89106;-70
2023/10/26 03:37:24;;;;;;;8.30;7.50;;;23.70;96.30;;;;;;6324826;27;89600;-70
2023/10/26 03:40:28;;;;;;;8.63;7.82;;;23.70;96.30;;;;;;6329747;27;89306;-70
2023/10/26 03:43:31;;;;;;;8.90;8.00;;;23.70;96.40;;;;;;6318836;27;88962;-70
2023/10/26 03:46:33;;;;;;;8.75;7.93;;;23.70;96.40;;;;;;6308233;27;88060;-70
2023/10/26 03:49:35;;;;;;;9.27;8.23;;;23.70;96.40;;;;;;6332882;27;88358;-70
2023/10/26 03:52:37;;;;;;;9.02;8.13;;;23.70;96.20;;;;;;6312332;27;89024;-70
2023/10/26 03:55:40;;;;;;;8.80;8.00;;;23.70;96.10;;;;;;6309676;27;89409;-70
2023/10/26 03:58:42;;;;;;;9.35;8.45;;;23.60;96.10;;;;;;6330986;27;89976;-70
2023/10/26 04:01:44;;;;;;;8.80;8.00;;;23.70;96.20;;;;;;6322721;27;87847;-70
2023/10/26 04:04:49;;;;;;;9.02;8.13;;;23.70;96.10;;;;;;6328899;27;89378;-70
2023/10/26 04:07:52;;;;;;;9.45;8.30;;;23.70;96.10;;;;;;6311042;27;89529;-70
2023/10/26 04:10:56;;;;;;;8.73;7.82;;;23.70;96.00;;;;;;6307438;27;89117;-70
2023/10/26 04:13:58;;;;;;;8.43;7.63;;;23.70;96.00;;;;;;6307012;27;87918;-69
2023/10/26 04:16:59;;;;;;;8.50;7.70;;;23.70;96.00;;;;;;6323927;27;90745;-70
2023/10/26 04:20:01;;;;;;;9.02;8.13;;;23.80;95.90;;;;;;6332629;27;88449;-70
2023/10/26 04:23:04;;;;;;;8.52;7.70;;;23.80;95.90;;;;;;6332829;27;89127;-70
2023/10/26 04:26:08;;;;;;;8.48;7.68;;;23.80;95.80;;;;;;6320818;27;89019;-70
2023/10/26 04:29:10;;;;;;;8.60;7.80;;;23.80;95.80;;;;;;6311306;27;88953;-70
2023/10/26 04:32:12;;;;;;;8.18;7.38;;;23.90;95.80;;;;;;6321234;27;88007;-70
2023/10/26 04:35:14;;;;;;;8.93;8.00;;;23.80;95.80;;;;;;6316639;27;89147;-70
2023/10/26 04:38:16;;;;;;;8.45;7.65;;;23.90;95.80;;;;;;6323247;27;87877;-71
2023/10/26 04:41:20;;;;;;;8.07;7.30;;;23.90;95.80;;;;;;6306711;27;89135;-70
2023/10/26 04:44:22;;;;;;;7.72;7.03;;;23.90;95.90;;;;;;6313780;27;89057;-70
2023/10/26 04:47:24;;;;;;;8.25;7.45;;;23.90;95.70;;;;;;6324933;27;89175;-70
2023/10/26 04:50:26;;;;;;;9.23;7.75;;;23.90;95.60;;;;;;6330203;27;88236;-71
2023/10/26 04:53:28;;;;;;;7.70;7.00;;;23.90;95.60;;;;;;6315750;27;88042;-71
2023/10/26 04:56:32;;;;;;;7.80;7.10;;;23.90;95.60;;;;;;6325918;27;89010;-70
2023/10/26 04:59:34;;;;;;;8.43;7.63;;;24.00;95.60;;;;;;6330518;27;89919;-70
2023/10/26 05:02:36;;;;;;;8.10;7.30;;;23.90;95.50;;;;;;6320834;27;89092;-71
2023/10/26 05:05:38;;;;;;;8.07;7.28;;;23.90;95.50;;;;;;6320258;27;88962;-70
2023/10/26 05:08:40;;;;;;;7.47;6.78;;;24.00;95.50;;;;;;6314784;27;89296;-71
2023/10/26 05:11:44;;;;;;;8.13;7.32;;;24.00;95.50;;;;;;6318831;27;87910;-70
2023/10/26 05:14:46;;;;;;;7.65;6.95;;;24.00;95.50;;;;;;6323871;27;89192;-70
2023/10/26 05:17:48;;;;;;;7.97;7.20;;;24.00;95.40;;;;;;6308678;27;88969;-71
2023/10/26 05:20:50;;;;;;;7.78;7.07;;;24.00;95.40;;;;;;6309087;27;88490;-71
2023/10/26 05:23:52;;;;;;;7.80;7.10;;;24.00;95.40;;;;;;6320007;27;89412;-70
2023/10/26 05:26:55;;;;;;;7.60;6.90;;;24.10;95.40;;;;;;6327619;27;89286;-71
2023/10/26 05:29:57;;;;;;;8.15;7.35;;;24.00;95.30;;;;;;6323021;27;90067;-70
2023/10/26 05:32:59;;;;;;;7.72;7.00;;;24.00;95.30;;;;;;6308058;27;89061;-70
2023/10/26 05:36:01;;;;;;;7.10;6.40;;;24.00;95.30;;;;;;6314772;27;89017;-70
2023/10/26 05:39:04;;;;;;;7.28;6.57;;;24.00;95.30;;;;;;6326035;27;88811;-70
2023/10/26 05:42:10;;;;;;;7.15;6.45;;;24.00;95.30;;;;;;6326353;27;87615;-70
2023/10/26 05:45:12;;;;;;;7.93;7.13;;;24.00;95.30;;;;;;6312648;27;89418;-71
2023/10/26 05:48:16;;;;;;;7.22;6.47;;;24.10;95.30;;;;;;6317904;27;89012;-70
2023/10/26 05:51:18;;;;;;;7.15;6.45;;;24.10;95.20;;;;;;6335013;27;88447;-70
2023/10/26 05:54:20;;;;;;;7.20;6.50;;;24.10;95.20;;;;;;6324147;27;89038;-71
2023/10/26 05:57:25;;;;;;;6.72;6.13;;;24.10;95.20;;;;;;6309897;27;90497;-71
2023/10/26 06:00:27;;;;;;;7.10;6.40;;;24.10;95.20;;;;;;6320570;27;90341;-71
2023/10/26 06:03:30;;;;;;;6.68;6.07;;;24.10;95.20;;;;;;6327428;27;89233;-71
2023/10/26 06:06:32;;;;;;;7.45;6.30;;;24.10;95.10;;;;;;6319503;27;89048;-71
2023/10/26 06:09:34;;;;;;;8.48;6.75;;;24.10;95.00;;;;;;6331249;27;89066;-71
2023/10/26 06:12:37;;;;;;;6.85;6.15;;;24.10;95.10;;;;;;6317774;27;89238;-70
2023/10/26 06:15:39;;;;;;;6.78;6.07;;;24.10;95.00;;;;;;6319379;27;87996;-71
2023/10/26 06:18:44;;;;;;;6.40;5.80;;;24.10;95.00;;;;;;6309751;27;89056;-71
2023/10/26 06:21:46;;;;;;;6.70;6.07;;;24.10;95.00;;;;;;6314890;27;88332;-68
2023/10/26 06:24:48;;;;;;;6.80;6.15;;;24.10;95.00;;;;;;6332944;27;89052;-69
2023/10/26 06:27:51;;;;;;;7.45;6.07;;;24.20;95.00;;;;;;6333311;27;89004;-70
2023/10/26 06:30:54;;;;;;;7.13;5.72;;;24.10;95.00;;;;;;6327401;27;90022;-69
2023/10/26 06:33:56;;;;;;;6.18;5.57;;;24.10;95.00;;;;;;6331238;27;89345;-70
2023/10/26 06:36:58;;;;;;;6.82;6.13;;;24.10;95.00;;;;;;6319896;27;89079;-69
2023/10/26 06:39:59;;;;;;;7.30;5.85;;;24.10;95.00;;;;;;6327531;27;89005;-68
2023/10/26 06:43:03;;;;;;;8.45;5.47;;;24.10;95.00;;;;;;6309105;27;89073;-68
2023/10/26 06:46:06;;;;;;;6.15;4.35;;;24.20;95.00;;;;;;6328126;27;89023;-69
2023/10/26 06:49:07;;;;;;;5.35;4.70;;;24.20;94.30;;;;;;6318198;27;89333;-69
2023/10/26 06:52:09;;;;;;;5.78;5.10;;;24.20;94.50;;;;;;6323572;27;88610;-67
2023/10/26 06:55:14;;;;;;;5.50;5.00;;;24.20;94.60;;;;;;6331085;27;89101;-69
2023/10/26 06:58:18;;;;;;;6.47;4.95;;;24.20;94.60;;;;;;6318709;27;88876;-69
2023/10/26 07:01:20;;;;;;;7.45;5.10;;;24.20;94.70;;;;;;6328587;27;90002;-68
2023/10/26 07:04:22;;;;;;;6.97;5.07;;;24.20;94.70;;;;;;6335504;27;89018;-68
2023/10/26 07:07:25;;;;;;;5.55;4.80;;;24.20;94.70;;;;;;6321433;27;89157;-69
2023/10/26 07:10:28;;;;;;;5.55;5.05;;;24.20;94.70;;;;;;6321484;27;90216;-69
2023/10/26 07:13:31;;;;;;;6.28;4.90;;;24.20;94.70;;;;;;6321975;27;89001;-68
2023/10/26 07:16:33;;;;;;;8.40;6.88;;;24.20;94.60;;;;;;6320128;27;89004;-68
2023/10/26 07:19:35;;;;;;;51.25;23.80;;;24.20;94.90;;;;;;6319324;27;87941;-68
2023/10/26 07:22:38;;;;;;;16.40;9.52;;;24.30;98.80;;;;;;6308087;27;88325;-68
2023/10/26 07:25:40;;;;;;;10.60;6.82;;;24.30;98.60;;;;;;6326626;27;89104;-68
2023/10/26 07:28:43;;;;;;;9.35;6.40;;;24.50;96.70;;;;;;6310723;27;88929;-67
2023/10/26 07:31:46;;;;;;;10.35;6.60;;;24.50;96.10;;;;;;6311114;27;90028;-68
2023/10/26 07:34:48;;;;;;;8.25;5.85;;;24.50;95.90;;;;;;6327336;27;88976;-71
2023/10/26 07:37:51;;;;;;;9.98;5.80;;;24.50;95.70;;;;;;6313484;27;89140;-66
2023/10/26 07:40:56;;;;;;;8.48;5.57;;;24.50;95.70;;;;;;6330475;27;90281;-68
2023/10/26 07:43:59;;;;;;;7.50;5.60;;;24.50;99.80;;;;;;6323018;27;88998;-68
2023/10/26 07:47:02;;;;;;;7.20;6.07;;;24.50;96.60;;;;;;6312316;27;89347;-68
2023/10/26 07:50:05;;;;;;;7.25;5.80;;;24.50;95.90;;;;;;6320388;27;87944;-67
2023/10/26 07:53:08;;;;;;;9.23;5.63;;;24.50;95.70;;;;;;6330482;27;88172;-67
2023/10/26 07:56:10;;;;;;;7.63;5.82;;;24.60;95.80;;;;;;6320396;27;89085;-66
2023/10/26 07:59:13;;;;;;;7.72;5.45;;;24.60;96.00;;;;;;6321973;27;89048;-66
2023/10/26 08:02:15;;;;;;;7.25;5.22;;;24.60;96.30;;;;;;6328049;27;90026;-68
2023/10/26 08:05:17;;;;;;;6.60;5.28;;;24.60;96.40;;;;;;6331255;27;89102;-67
2023/10/26 08:08:19;;;;;;;7.05;5.25;;;24.60;96.50;;;;;;6324561;27;89080;-67
2023/10/26 08:11:24;;;;;;;9.23;5.50;;;24.60;96.50;;;;;;6323992;27;89396;-67
2023/10/26 08:14:29;;;;;;;7.20;5.43;;;24.60;96.50;;;;;;6316332;27;89143;-67
2023/10/26 08:17:34;;;;;;;9.00;5.63;;;24.60;96.60;;;;;;6315934;27;87932;-67
2023/10/26 08:20:37;;;;;;;10.27;5.28;;;24.60;97.00;;;;;;6319813;27;88057;-66
2023/10/26 08:23:38;;;;;;;9.30;5.10;;;24.60;97.30;;;;;;6327558;27;88355;-67
2023/10/26 08:26:40;;;;;;;7.72;5.00;;;24.60;97.30;;;;;;6325505;27;89457;-67
2023/10/26 08:29:44;;;;;;;8.77;5.13;;;24.60;97.10;;;;;;6307503;27;89022;-67
2023/10/26 08:32:49;;;;;;;5.68;4.55;;;24.60;96.90;;;;;;6308469;27;90040;-67
2023/10/26 08:35:54;;;;;;;6.80;4.72;;;24.60;96.80;;;;;;6320904;27;89117;-67
2023/10/26 08:38:56;;;;;;;6.88;4.85;;;24.60;96.70;;;;;;6329376;27;89016;-67
2023/10/26 08:42:01;;;;;;;5.78;4.47;;;24.50;96.70;;;;;;6317559;27;89100;-67
2023/10/26 08:45:09;;;;;;;12.07;5.30;;;24.60;96.80;;;;;;6322243;27;89225;-68
2023/10/26 08:48:16;;;;;;;7.82;4.75;;;24.60;97.70;;;;;;6327881;27;87949;-67
2023/10/26 08:51:18;;;;;;;8.23;4.43;;;24.60;99.90;;;;;;6325414;27;88059;-68
2023/10/26 08:54:20;;;;;;;10.85;4.18;;;24.60;99.60;;;;;;6309488;27;88317;-68
2023/10/26 08:57:22;;;;;;;8.57;4.28;;;24.60;98.70;;;;;;6316546;27;89070;-68
2023/10/26 09:00:26;;;;;;;5.22;4.22;;;24.70;98.70;;;;;;6321387;27;89175;-68
2023/10/26 09:03:28;;;;;;;8.25;4.50;;;24.70;98.60;;;;;;6319906;27;90008;-68
2023/10/26 09:06:43;;;;;;;6.13;3.58;;;24.70;98.50;;;;;;6316954;27;87963;-68
2023/10/26 09:09:45;;;;;;;6.00;3.83;;;24.70;97.80;;;;;;6319804;27;89279;-68
2023/10/26 09:12:59;;;;;;;6.15;4.25;;;24.70;98.00;;;;;;6321631;27;88024;-68
2023/10/26 09:16:03;;;;;;;5.00;3.40;;;24.70;97.90;;;;;;6320528;27;89172;-68
2023/10/26 09:19:05;;;;;;;6.20;3.75;;;24.70;97.40;;;;;;6311938;27;88927;-68
2023/10/26 09:22:09;;;;;;;4.57;3.30;;;24.60;97.60;;;;;;6326350;27;88976;-68
2023/10/26 09:25:12;;;;;;;5.95;3.75;;;24.70;97.80;;;;;;6334820;27;88084;-68
2023/10/26 09:28:14;;;;;;;6.72;3.83;;;24.70;97.80;;;;;;6330927;27;89061;-68
2023/10/26 09:31:18;;;;;;;5.97;3.60;;;24.70;97.70;;;;;;6320890;27;89081;-68
2023/10/26 09:34:24;;;;;;;5.60;3.63;;;24.60;97.60;;;;;;6311938;27;90222;-68
2023/10/26 09:37:26;;;;;;;3.85;3.05;;;24.60;97.60;;;;;;6323081;27;89000;-68
2023/10/26 09:40:29;;;;;;;3.80;2.92;;;24.60;97.60;;;;;;6333345;27;89345;-68
2023/10/26 09:43:31;;;;;;;4.05;2.90;;;24.70;97.50;;;;;;6324184;27;89054;-68
2023/10/26 09:46:34;;;;;;;4.35;3.08;;;24.70;97.40;;;;;;6320394;27;88025;-68
2023/10/26 09:49:36;;;;;;;3.60;2.83;;;24.70;97.30;;;;;;6322784;27;89092;-68
2023/10/26 09:52:39;;;;;;;4.28;3.10;;;24.60;97.20;;;;;;6322049;27;88979;-68
2023/10/26 09:55:43;;;;;;;3.47;2.50;;;24.60;97.20;;;;;;6319351;27;88118;-68
2023/10/26 09:58:46;;;;;;;4.57;2.80;;;24.60;97.10;;;;;;6317819;27;89461;-68
2023/10/26 10:01:49;;;;;;;7.00;2.95;;;24.60;97.00;;;;;;6334740;27;89356;-68
2023/10/26 10:04:51;;;;;;;3.38;2.60;;;24.60;97.00;;;;;;6321063;27;90016;-68
2023/10/26 10:07:53;;;;;;;3.17;2.50;;;24.60;96.90;;;;;;6319625;27;89034;-68
2023/10/26 10:11:17;;;;;;;3.72;2.28;;;24.60;96.80;;;;;;6327710;27;89096;-68
2023/10/26 10:14:57;;;;;;;2.88;2.40;;;24.60;96.70;;;;;;6304884;27;87946;-68
2023/10/26 10:18:09;;;;;;;3.03;2.42;;;24.60;96.60;;;;;;6299614;27;89299;-67
2023/10/26 10:21:35;;;;;;;3.88;2.50;;;24.60;96.60;;;;;;6321679;27;89402;-67
2023/10/26 10:24:54;;;;;;;3.88;2.90;;;24.60;96.50;;;;;;6324844;27;89510;-68
2023/10/26 10:28:12;;;;;;;5.43;2.83;;;24.60;96.40;;;;;;6333981;27;87756;-68
2023/10/26 10:31:36;;;;;;;2.58;2.05;;;24.60;96.30;;;;;;6335380;27;89895;-68
2023/10/26 10:34:45;;;;;;;3.38;2.53;;;24.60;96.30;;;;;;6328864;27;89126;-68
2023/10/26 10:38:18;;;;;;;3.72;2.58;;;24.60;96.10;;;;;;6330722;27;90343;-68
2023/10/26 10:41:20;;;;;;;5.10;2.00;;;24.60;96.20;;;;;;6314541;27;88955;-69
2023/10/26 10:44:25;;;;;;;4.15;2.30;;;24.60;95.50;;;;;;6323185;27;89034;-68
2023/10/26 10:47:29;;;;;;;2.95;2.17;;;24.60;95.70;;;;;;6319861;27;89435;-69
2023/10/26 10:50:32;;;;;;;3.53;2.40;;;24.50;96.00;;;;;;6321746;27;89324;-69
2023/10/26 10:53:36;;;;;;;5.45;2.80;;;24.60;96.00;;;;;;6322219;27;89130;-69
2023/10/26 10:56:39;;;;;;;2.67;2.30;;;24.50;96.00;;;;;;6322763;27;89121;-69
2023/10/26 10:59:41;;;;;;;4.22;2.60;;;24.50;96.10;;;;;;6318714;27;89946;-69
2023/10/26 11:02:49;;;;;;;3.83;2.08;;;24.60;96.20;;;;;;6327074;27;89074;-69
2023/10/26 11:05:52;;;;;;;4.32;2.25;;;24.50;96.20;;;;;;6321701;27;87784;-68
2023/10/26 11:08:54;;;;;;;3.85;2.10;;;24.50;96.20;;;;;;6325069;27;90583;-68
2023/10/26 11:12:08;;;;;;;2.40;2.17;;;24.50;96.30;;;;;;6329048;27;87938;-69
2023/10/26 11:15:10;;;;;;;3.33;2.10;;;24.50;96.30;;;;;;6313679;27;89274;-69
2023/10/26 11:18:12;;;;;;;2.92;2.05;;;24.50;96.30;;;;;;6328904;27;89595;-69
2023/10/26 11:21:19;;;;;;;3.63;2.20;;;24.50;96.40;;;;;;6317034;27;89404;-71
2023/10/26 11:24:21;;;;;;;4.82;2.00;;;24.50;96.40;;;;;;6335178;27;89094;-70
2023/10/26 11:27:23;;;;;;;2.83;2.17;;;24.50;96.40;;;;;;6321048;27;89146;-69
2023/10/26 11:30:25;;;;;;;3.33;2.30;;;24.50;96.40;;;;;;6318163;27;88348;-68
2023/10/26 11:33:30;;;;;;;3.97;2.13;;;24.50;96.40;;;;;;6323295;27;89177;-69
2023/10/26 11:36:35;;;;;;;3.53;2.22;;;24.50;96.30;;;;;;6320459;27;89253;-69
2023/10/26 11:39:37;;;;;;;3.60;1.98;;;24.50;96.30;;;;;;6319451;27;90078;-70
2023/10/26 11:42:49;;;;;;;3.38;1.85;;;24.50;96.30;;;;;;6314827;27;89080;-69
2023/10/26 11:45:51;;;;;;;3.08;2.15;;;24.50;96.30;;;;;;6320942;27;88958;-70
2023/10/26 11:48:53;;;;;;;2.85;2.10;;;24.50;96.30;;;;;;6307392;27;88223;-69
2023/10/26 11:51:57;;;;;;;3.38;1.80;;;24.60;96.60;;;;;;6321588;27;89382;-69
2023/10/26 11:55:00;;;;;;;3.42;2.00;;;24.50;96.60;;;;;;6321292;27;89179;-69
2023/10/26 11:58:04;;;;;;;2.75;1.83;;;24.50;96.60;;;;;;6316509;27;89217;-68
2023/10/26 12:01:06;;;;;;;3.63;2.10;;;24.60;96.70;;;;;;6330495;27;87698;-69
2023/10/26 12:04:11;;;;;;;3.17;1.80;;;24.50;97.00;;;;;;6321315;27;89081;-70
2023/10/26 12:07:15;;;;;;;4.32;2.00;;;24.50;96.50;;;;;;6325221;27;89013;-70
2023/10/26 12:10:20;;;;;;;4.65;2.28;;;24.50;96.50;;;;;;6322607;27;90992;-70
2023/10/26 12:13:22;;;;;;;3.78;2.00;;;24.50;96.60;;;;;;6317376;27;89161;-69
2023/10/26 12:16:24;;;;;;;4.00;1.80;;;24.50;96.70;;;;;;6320086;27;89080;-69
2023/10/26 12:19:26;;;;;;;4.03;1.70;;;24.50;96.70;;;;;;6320995;27;89151;-70
2023/10/26 12:22:30;;;;;;;4.63;1.65;;;24.50;96.70;;;;;;6316780;27;89156;-70
2023/10/26 12:25:32;;;;;;;4.22;1.70;;;24.50;96.70;;;;;;6323362;27;89138;-70
2023/10/26 12:28:34;;;;;;;2.85;1.73;;;24.50;96.70;;;;;;6310268;27;89039;-70
2023/10/26 12:31:36;;;;;;;3.22;1.75;;;24.50;96.70;;;;;;6327383;27;87213;-70
2023/10/26 12:34:39;;;;;;;2.83;1.73;;;24.50;96.60;;;;;;6318854;27;88676;-70
2023/10/26 12:37:46;;;;;;;2.42;1.77;;;24.50;96.60;;;;;;6322720;27;89047;-70
2023/10/26 12:40:48;;;;;;;4.30;1.88;;;24.50;96.60;;;;;;6308867;27;90250;-69
2023/10/26 12:43:50;;;;;;;2.90;1.70;;;24.50;96.60;;;;;;6318371;27;89034;-69
2023/10/26 12:46:53;;;;;;;2.13;1.60;;;24.50;96.60;;;;;;6307096;27;89057;-69
2023/10/26 12:49:57;;;;;;;2.20;1.50;;;24.50;96.50;;;;;;6306893;27;89037;-69
2023/10/26 12:53:03;;;;;;;2.05;1.60;;;24.50;96.50;;;;;;6328969;27;89658;-69
2023/10/26 12:56:05;;;;;;;1.88;1.60;;;24.50;96.40;;;;;;6314715;27;89031;-69
2023/10/26 12:59:07;;;;;;;2.00;1.70;;;24.50;96.40;;;;;;6325282;27;89005;-69
2023/10/26 13:02:09;;;;;;;3.58;1.60;;;24.50;96.30;;;;;;6325427;27;87198;-69
2023/10/26 13:05:11;;;;;;;2.25;1.60;;;24.50;96.50;;;;;;6318080;27;89086;-70
2023/10/26 13:08:15;;;;;;;2.97;1.70;;;24.50;96.30;;;;;;6323477;27;89041;-70
2023/10/26 13:11:17;;;;;;;3.22;1.63;;;24.50;96.30;;;;;;6324283;27;90048;-69
2023/10/26 13:14:19;;;;;;;2.97;1.65;;;24.50;96.20;;;;;;6317919;27;89169;-69
2023/10/26 13:17:21;;;;;;;2.88;1.50;;;24.50;96.20;;;;;;6323368;27;87972;-69
2023/10/26 13:20:25;;;;;;;2.30;1.50;;;24.50;96.20;;;;;;6309267;27;89071;-70
2023/10/26 13:23:31;;;;;;;2.17;1.60;;;24.50;96.20;;;;;;6330168;27;89092;-69
2023/10/26 13:26:33;;;;;;;4.03;1.80;;;24.50;96.10;;;;;;6327176;27;88914;-70
2023/10/26 13:29:35;;;;;;;3.50;1.60;;;24.50;96.10;;;;;;6311011;27;89085;-69
2023/10/26 13:32:37;;;;;;;2.38;1.75;;;24.50;96.10;;;;;;6310522;27;88312;-69
2023/10/26 13:35:39;;;;;;;2.60;1.55;;;24.50;96.00;;;;;;6318032;27;89078;-69
2023/10/26 13:38:43;;;;;;;3.88;1.80;;;24.50;96.00;;;;;;6310385;27;89082;-69
2023/10/26 13:41:44;;;;;;;2.10;1.58;;;24.50;96.00;;;;;;6316051;27;89985;-70
2023/10/26 13:44:46;;;;;;;1.90;1.70;;;24.50;96.20;;;;;;6324659;27;88942;-69
2023/10/26 13:47:48;;;;;;;1.92;1.30;;;24.50;96.00;;;;;;6318345;27;88286;-69
2023/10/26 13:50:50;;;;;;;2.15;1.60;;;24.50;95.90;;;;;;6319731;27;89019;-70
2023/10/26 13:53:54;;;;;;;2.33;1.65;;;24.50;95.90;;;;;;6315666;27;88803;-69
2023/10/26 13:56:56;;;;;;;2.17;1.48;;;24.50;95.90;;;;;;6322170;27;89040;-70
2023/10/26 13:59:58;;;;;;;2.15;1.63;;;24.50;95.90;;;;;;6315584;27;89201;-70
2023/10/26 14:03:01;;;;;;;3.50;2.40;;;24.50;96.30;;;;;;6310046;27;89346;-69
2023/10/26 14:06:03;;;;;;;2.53;1.88;;;24.50;95.90;;;;;;6307473;27;89462;-70
2023/10/26 14:09:06;;;;;;;2.35;1.70;;;24.50;95.80;;;;;;6317754;27;89062;-70
2023/10/26 14:12:08;;;;;;;2.90;1.90;;;24.50;95.80;;;;;;6331496;27;90016;-70
2023/10/26 14:15:11;;;;;;;3.45;2.10;;;24.50;95.80;;;;;;6316435;27;89048;-69
2023/10/26 14:18:13;;;;;;;3.42;2.00;;;24.50;95.80;;;;;;6315605;27;89014;-70
2023/10/26 14:21:16;;;;;;;3.03;2.10;;;24.50;95.80;;;;;;6334391;27;89141;-71
2023/10/26 14:24:19;;;;;;;4.15;1.98;;;24.50;95.80;;;;;;6322878;27;88845;-70
2023/10/26 14:27:22;;;;;;;2.25;2.03;;;24.50;95.80;;;;;;6325659;27;88289;-70
2023/10/26 14:30:24;;;;;;;2.40;1.80;;;24.50;95.80;;;;;;6321302;27;89382;-69
2023/10/26 14:33:26;;;;;;;2.33;2.08;;;24.50;95.80;;;;;;6321008;27;87265;-71
2023/10/26 14:36:28;;;;;;;2.58;2.10;;;24.50;95.80;;;;;;6332151;27;89006;-70
2023/10/26 14:39:31;;;;;;;2.80;2.17;;;24.50;95.80;;;;;;6316301;27;89328;-70
2023/10/26 14:42:33;;;;;;;2.65;2.20;;;24.50;95.80;;;;;;6322734;27;90032;-70
2023/10/26 14:45:35;;;;;;;2.50;2.10;;;24.50;95.80;;;;;;6326220;27;90060;-70
2023/10/26 14:48:38;;;;;;;2.60;2.30;;;24.50;95.80;;;;;;6332464;27;89147;-70
2023/10/26 14:51:42;;;;;;;2.30;2.10;;;24.50;95.80;;;;;;6322224;27;89103;-70
2023/10/26 14:54:46;;;;;;;3.20;2.50;;;24.50;95.80;;;;;;6322803;27;89426;-70
2023/10/26 14:57:48;;;;;;;2.90;2.60;;;24.50;95.80;;;;;;6314935;27;88976;-70
2023/10/26 15:00:50;;;;;;;2.58;2.38;;;24.50;95.80;;;;;;6321847;27;89091;-70
2023/10/26 15:03:52;;;;;;;3.55;2.85;;;24.50;95.80;;;;;;6331511;27;88370;-70
2023/10/26 15:06:54;;;;;;;3.45;2.60;;;24.50;95.80;;;;;;6330261;27;89412;-70
2023/10/26 15:09:59;;;;;;;2.70;2.50;;;24.50;95.80;;;;;;6321785;27;89099;-70
2023/10/26 15:13:03;;;;;;;2.83;2.60;;;24.50;95.70;;;;;;6322407;27;88998;-70
2023/10/26 15:16:05;;;;;;;2.90;2.65;;;24.50;95.70;;;;;;6308870;27;89065;-70
2023/10/26 15:19:07;;;;;;;2.85;2.55;;;24.40;95.70;;;;;;6314724;27;89106;-71
2023/10/26 15:22:09;;;;;;;2.80;2.55;;;24.50;95.70;;;;;;6317759;27;89037;-70
2023/10/26 15:25:13;;;;;;;3.13;2.80;;;24.40;95.70;;;;;;6320006;27;89099;-69
2023/10/26 15:28:17;;;;;;;3.20;2.90;;;24.40;95.70;;;;;;6324429;27;88023;-70
2023/10/26 15:31:19;;;;;;;3.40;3.10;;;24.50;95.70;;;;;;6308763;27;89156;-69
2023/10/26 15:34:21;;;;;;;4.32;2.92;;;24.40;95.70;;;;;;6320021;27;88601;-70
2023/10/26 15:37:23;;;;;;;3.05;2.70;;;24.40;95.70;;;;;;6320547;27;88826;-69
2023/10/26 15:40:27;;;;;;;3.20;2.90;;;24.40;95.70;;;;;;6315327;27;89216;-69
2023/10/26 15:43:29;;;;;;;3.38;3.08;;;24.50;95.70;;;;;;6329602;27;89983;-69
2023/10/26 15:46:31;;;;;;;3.10;2.80;;;24.40;95.70;;;;;;6313356;27;88969;-70
2023/10/26 15:49:33;;;;;;;3.78;3.20;;;24.40;95.60;;;;;;6312854;27;89044;-69
2023/10/26 15:52:35;;;;;;;3.85;3.28;;;24.50;95.60;;;;;;6316152;27;89237;-69